Reed Point, Montana
Current Conditions -  °F | °C
As of 11:53 PM on Sunday 21 Dec 2014 (Local Time) from KLVM Reporting Station
Scattered Clouds Scattered Clouds  
Wind Chill: 26°   Ceiling: Unl
Heat Index: 37°   Visibility: 10mi
Dew Point: 21°   Wind: 21mph
Humidity: 52%   Direction: 250°WSW
Pressure: 29.76"   Gusts: NA
Location:  45.71°N, 109.54°W
Report Text: KLVM 220653Z AUTO 25018KT 10SM SCT065 03/M06 A2976 RMK AO2 SLP084 T00281061 400830017 $
Loading
Personal Weather Stations






























Interactive Weather Map New forecast layout! Learn more

10-Day Weather Forecast

Advertisements
Track Severe Weather on mobile